Logo AVAMET
Benvolgut visitant, si us plau, ingressa Recuperar contrasenya
AVAMET paisatges

Betxí

Dades diàries. Acumulats / Últims 30 dies disponibles

Data Temperatura (°C) Humitat rel. (%) Pressió rel. (hPa) Vent (km/h) Precipitació
Mínima Mitjana Màxima Amplitud
tèrmica
Mínima Mitjana Màxima Mínima Mitjana Màxima Predom. Mitjana Ràfega
màxima
Total
(mm)
Índex-n
Mínima Mitjana Màxima Mínima Mitjana Màxima n
0 a 1
P0 max
mm 5'
Dades mensuals acumulades fins l'últim dia disponible
10/2020 10,1 13,3 16,6 18,2 18,5 23,3 27,3 17,2 27 58 89 991 1.015 1.025   5,4 66,0 3,6
Dades anuals acumulades fins l'últim dia disponible
2020 2,7 14,8 24,8 19,2 9,2 23,8 33,9 31,2 19 67 93 991 1.018 1.035   4,5 66,0 455,0
Últims 30 dies disponibles
19-10-2020 12,3     17,1     22,2 9,9 50 76 86 1.019 1.021 1.022 NW 4,3 25,7 0,0
18-10-2020 10,5     16,2     21,8 11,3 38 68 82 1.020 1.021 1.022 WNW 4,5 20,9 0,0
17-10-2020 10,1     14,8     20,1 10,0 52 66 77 1.016 1.018 1.020 NW 4,8 22,5 0,0
16-10-2020 10,7     14,5     18,5 7,8 36 49 68 1.016 1.018 1.019 NW 5,3 25,7 0,0
15-10-2020 11,9     16,6     21,3 9,4 27 42 55 1.013 1.014 1.017 NW 6,3 33,8 0,0
14-10-2020 15,4     18,3     21,8 6,4 29 54 71 1.008 1.010 1.013 NW 5,8 25,7 0,0
13-10-2020 12,8     19,2     25,3 12,5 40 57 75 1.011 1.014 1.019 WNW 4,3 25,7 0,0
12-10-2020 13,2     17,9     22,1 8,9 32 45 66 1.019 1.020 1.022 NW 8,2 40,2 0,0
11-10-2020 14,6     18,6     22,4 7,8 31 44 71 1.019 1.021 1.022 NW 6,3 29,0 0,0
10-10-2020 16,4     20,1     25,5 9,1 58 77 88 1.021 1.022 1.023 NW 3,2 17,7 0,0
09-10-2020 16,6     20,7     24,2 7,6 68 78 86 1.021 1.022 1.024 SE 3,2 24,1 0,0
08-10-2020 15,9     20,8     25,2 9,3 60 73 85 1.022 1.024 1.025 NW 4,8 33,8 0,0
06-10-2020 13,5     18,4     26,0 12,5 33 51 61 1.018 1.020 1.021 NW 5,0 22,5 0,0
05-10-2020 13,3     17,9     23,2 9,9 34 50 65 1.011 1.015 1.021 NW 4,8 27,4 0,0
04-10-2020 11,8     18,4     24,4 12,6 30 45 60 1.005 1.008 1.011 NW 6,0 37,0 0,0
03-10-2020 12,8     18,4     24,4 11,6 28 41 60 1.000 1.004 1.009 WNW 7,4 40,2 0,0
02-10-2020 12,5     19,3     23,8 11,3 45 54 81 991 997 1.004 WNW 8,9 66,0 3,6 0,26 1,80
01-10-2020 14,9     20,9     27,3 12,4 48 70 89 1.005 1.008 1.013 WNW 3,7 19,3 0,0
30-09-2020 14,9     19,6     23,8 8,9 55 75 84 1.014 1.016 1.018 SO 3,9 22,5 0,0
29-09-2020 14,2     19,1     24,0 9,8 46 63 80 1.017 1.019 1.020 NW 4,3 24,1 0,0
28-09-2020 13,6     18,5     23,8 10,2 36 50 65 1.014 1.016 1.019 NW 4,8 25,7 0,0
27-09-2020 16,6     21,2     24,9 8,3 19 42 59 1.007 1.011 1.015 NW 8,5 43,5 0,0
26-09-2020 16,2     20,5     26,8 10,6 31 42 54 1.009 1.015 1.020 WNW 6,4 30,6 0,0
25-09-2020 18,7     22,2     24,8 6,1 25 37 51 1.012 1.015 1.020 NW 10,5 57,9 0,0
24-09-2020 19,8     24,5     29,7 9,9 40 58 81 1.010 1.012 1.013 WNW 5,0 32,2 0,0
23-09-2020 19,3     23,4     30,9 11,6 42 66 84 1.009 1.012 1.013 WNW 4,2 24,1 0,0
22-09-2020 17,6     22,1     26,8 9,2 56 75 87 1.012 1.014 1.016 NW 4,3 25,7 0,0
21-09-2020 18,4     23,0     28,2 9,8 50 68 85 1.015 1.016 1.017 NW 4,5 27,4 0,6
20-09-2020 20,3     24,2     28,3 8,0 43 57 77 1.014 1.015 1.016 WNW 4,8 22,5 0,0
19-09-2020 18,6     24,3     30,6 12,0 33 60 88 1.012 1.014 1.016 WNW 5,0 33,8 0,0
Últims 13 mesos disponibles
09/2020 13,6 18,2 21,5 22,8 23,8 27,7 31,2 17,6 37 64 81 1.011 1.017 1.024 NW 4,9 57,9 13,6
08/2020 15,6 21,7 24,8 26,2 26,2 30,5 32,9 17,3 52 67 78 1.005 1.014 1.019 ESE 4,6 35,4 9,8
07/2020 18,9 21,6 23,7 26,0 27,2 30,2 33,9 15,0 45 67 77 1.012 1.016 1.021 ESE 4,5 32,2 3,2
06/2020 13,3 18,0 21,4 22,5 21,5 26,8 31,1 17,8 38 67 81 1.004 1.015 1.021 ESE 4,7 40,2 48,6
05/2020 12,8 16,2 19,8 21,0 17,8 25,7 31,7 18,9 43 64 77 1.005 1.017 1.028 ESE 4,6 41,8 23,2
04/2020 7,7 11,9 17,3 15,6 14,8 20,0 27,4 19,7 43 74 87 1.005 1.016 1.027 WNW 3,6 33,8 117,0
03/2020 4,9 10,0 14,8 13,8 10,7 17,8 25,7 20,8 40 68 90 1.005 1.017 1.027 NW 5,2 66,0 166,0
02/2020 5,9 9,7 15,0 14,1 14,0 19,6 25,5 19,6 43 70 83 1.021 1.027 1.033 WNW 3,5 33,8 0,8
01/2020 2,7 6,8 13,8 10,6 9,2 15,8 22,1 19,4 57 74 89 1.018 1.026 1.033 NW 4,3 51,5 69,2
12/2019 4,3 9,8 17,3 13,4 12,3 17,8 24,9 20,6 43 69 90 1.001 1.019 1.033 NW 4,8 61,2 120,4
11/2019 5,9 11,2 17,9 15,0 13,9 19,2 26,3 20,4 40 52 74 997 1.009 1.016 NW 6,6 54,7 2,2
10/2019 10,1 15,4 19,8 19,6 15,8 24,4 28,8 18,7 45 69 85 1.007 1.016 1.022 NW 4,1 54,7 17,4
09/2019 14,8 19,3 22,7 23,1 21,0 27,4 31,6 16,8 49 71 81 1.010 1.018 1.026 NW 4,7 43,5 52,8
Tots els anys disponibles
2017 0,8 13,7 25,1 18,1 8,5 22,7 36,5 35,7 WNW 3,7 75,6 422,0
2016 2,7 13,8 26,4 17,8 8,2 21,9 34,6 31,9 52 61 68 1.014 1.015 1.019 3,5 81,0 485,2
Temperatura (°C)
Humitat relativa (%)
Velocitat del vent i ràfega màxima (km/h)
Direcció del vent (°)
Pressió (hPa)
Precipitació (mm)
Nota sobre les dades: s'avisa a l'usuari de la provisionalitat i no oficialitat d'aquestes dades
Logo AVAMET blanc
Web allotjada a Sollutia
Llicència de Creative CommonsLa web d'AVAMET i els seus continguts estan subjectes a una llicència de
Reconeixement - No Comercial - Compartir igual
Últimes estacions: La Vilavella - Centre (Ajuntament Soci), Alfondeguilla (Soci), Santa Magdalena de Polpís (Soci),  Benafigos (Aj. Soci), Carlet - Ajuntament (Inforatge), Montroi (Inforatge), Bronchales (Limítrofe-Terol/Aj. Soci), Sueca - Muntanyeta dels Sants (Inforatge), Vilamarxant - Ajuntament (Aj. Soci/Inforatge) - - -